Detall de PIREP

Printer-friendly versionPDF version

[2010/12/09 08:32:00]
Flight IATA:CT2111
Pilot Number:041
Company ICAO:CAT
Aircraft Type:F50/A
PAX:30
Aircraft Registration:PAOB
Departing Airport: LEST
Destination Airport: LEVC
Alternate Airport:LEAL
Online: VATSIM
Route:FORNO A33 ZMR A33 DISKO A33 INDEG A33 MAGIN A33 HORTA A33 CJN A33 PRADO A33 CENTA


Flight Level:FL180
No Slew and time accel
No pause
Crash detect
Detect pilot in Cockpit between each 30 and 45 minutes
08:32 Zero fuel Weight: 35103 Lbs, Fuel Weight: 5438 Lbs
08:32 VATSIM:LEST 090800Z 07008KT 020V110 9999 SCT038 06/04 Q1019 NOSIG
08:32 VATSIM:LEVC 090800Z VRB02KT CAVOK 14/11 Q1019 NOSIG
08:32 VOICE CATALONIAN
08:33 Parking Brakes off
08:41 Take-off
08:41 Take off Weight: 40428 Lbs
08:41 Wind: 069º @ 009 Knots Heading: 162º
08:41 POS N42º 53´ 48´´ W008º 24´ 54´´
08:41 Gear Up: 127 Knots
08:41 Flaps:2 at 128 Knots
08:41 Flaps:1 at 138 Knots
08:42 Flaps:0 at 148 Knots
08:56 Wind:063º@009 Knots Heading: 120º Ground Speed: 221 Knots Altitude 16332 ft
08:57 TOC
08:57 Fuel Weight: 4720 Lb
09:11 Wind:055º@007 Knots Heading: 123º Ground Speed: 255 Knots Altitude 18192 ft
09:26 Wind:061º@001 Knots Heading: 115º Ground Speed: 258 Knots Altitude 18244 ft
09:41 Wind:064º@015 Knots Heading: 113º Ground Speed: 249 Knots Altitude 18215 ft
09:53 TOD
09:53 Fuel Weight: 2992 Lb
09:56 Wind:067º@015 Knots Heading: 115º Ground Speed: 220 Knots Altitude 15544 ft
10:11 Wind:208º@003 Knots Heading: 119º Ground Speed: 231 Knots Altitude 6522 ft
10:26 Wind:296º@001 Knots Heading: 115º Ground Speed: 193 Knots Altitude 3996 ft
10:30 Flaps:1 at 179 Knots
10:30 Flaps:2 at 159 Knots
10:35 Flaps:3 at 146 Knots
10:36 Flaps:4 at 127 Knots
10:36 Gear Down: 126 Knots
10:36 Flaps:5 at 120 Knots
10:37 Flaps:6 at 112 Knots
10:38 TouchDown:Rate -167 ft/min Speed: 91 Knots
10:38 VATSIM:LEVC 091030Z 24003KT 200V280 CAVOK 21/13 Q1020 NOSIG
10:38 Land
10:38 Wind:239º@003 Knots
10:38 Heading: 298º
10:38 Flight Duration: 01:57
10:38 Landing Weight: 37159 Lbs
10:38 POS N39º 29´ 10´´ W000º 28´ 26´´
10:41 Parking brakes on
10:41 Block to Block Duration: 02:08
10:41 Final Fuel: 2028 Lbls
10:41 Spent Fuel: 3410 Lbls
10:41 Flight Length: 441 NM
10:41 TOD Land Length: 150 NM

Exportar CSV

Powered by Drupal - Modified by Danger4k